createdAt,value
2018-01-04T00:00:53.622Z,37.97
2018-01-04T00:03:21.284Z,41.60
2018-01-04T00:05:49.167Z,34.13
2018-01-04T00:08:16.803Z,40.07
2018-01-04T00:10:44.439Z,40.23
2018-01-04T00:13:12.212Z,38.47
2018-01-04T00:15:39.938Z,36.10
2018-01-04T00:18:07.606Z,41.40
2018-01-04T00:20:35.196Z,39.37
2018-01-04T00:23:03.126Z,43.70
2018-01-04T00:25:31.013Z,41.57
2018-01-04T00:27:58.814Z,44.77
2018-01-04T00:30:26.414Z,49.97
2018-01-04T00:32:54.030Z,43.40
2018-01-04T00:35:21.675Z,40.03
2018-01-04T00:37:49.289Z,23.07
2018-01-04T00:40:16.939Z,34.33
2018-01-04T00:42:44.571Z,39.40
2018-01-04T00:45:12.172Z,36.67
2018-01-04T00:47:39.842Z,37.30
2018-01-04T00:50:07.545Z,39.83
2018-01-04T00:52:35.436Z,47.40
2018-01-04T00:55:03.144Z,22.57
2018-01-04T00:57:31.104Z,41.07
2018-01-04T00:59:58.793Z,57.90
2018-01-04T01:02:26.472Z,47.57
2018-01-04T01:04:54.355Z,56.23
2018-01-04T01:07:21.945Z,33.13
2018-01-04T01:09:49.649Z,46.30
2018-01-04T01:12:17.280Z,49.60
2018-01-04T01:14:45.091Z,58.90
2018-01-04T01:17:12.759Z,33.07
2018-01-04T01:19:40.514Z,49.50
2018-01-04T01:22:08.166Z,43.10
2018-01-04T01:24:35.848Z,52.63
2018-01-04T01:27:03.456Z,49.67
2018-01-04T01:29:31.125Z,39.03
2018-01-04T01:31:58.787Z,44.13
2018-01-04T01:34:26.547Z,65.37
2018-01-04T01:36:54.376Z,51.70
2018-01-04T01:39:22.098Z,49.43
2018-01-04T01:41:49.748Z,39.80
2018-01-04T01:44:18.395Z,39.47
2018-01-04T01:46:46.464Z,43.60
2018-01-04T01:49:16.267Z,49.63
2018-01-04T01:51:43.977Z,49.97
2018-01-04T01:54:11.727Z,36.37
2018-01-04T01:56:39.464Z,68.00
2018-01-04T01:59:07.105Z,41.90
2018-01-04T02:01:35.069Z,55.97
2018-01-04T02:04:02.817Z,34.13
2018-01-04T02:06:30.617Z,29.93
2018-01-04T02:08:58.362Z,35.20
2018-01-04T02:11:29.540Z,38.50
2018-01-04T02:13:57.273Z,38.93
2018-01-04T02:16:25.145Z,44.47
2018-01-04T02:19:04.488Z,36.77
2018-01-04T02:21:44.016Z,47.10
2018-01-04T02:24:23.267Z,43.67
2018-01-04T02:27:04.250Z,43.53
2018-01-04T02:29:43.509Z,40.60
2018-01-04T02:32:22.868Z,41.10
2018-01-04T02:35:02.257Z,39.70
2018-01-04T02:37:41.694Z,46.00
2018-01-04T02:43:36.934Z,31.50
2018-01-04T02:46:16.290Z,59.63
2018-01-04T02:48:44.050Z,28.20
2018-01-04T02:51:11.832Z,43.20
2018-01-04T02:53:39.688Z,47.50
2018-01-04T02:56:07.286Z,54.07
2018-01-04T02:58:35.011Z,36.50
2018-01-04T03:01:02.727Z,39.37
2018-01-04T03:03:30.404Z,47.23
2018-01-04T03:05:58.109Z,36.33
2018-01-04T03:08:25.748Z,49.93
2018-01-04T03:10:53.376Z,41.80
2018-01-04T03:13:21.072Z,47.00
2018-01-04T03:15:48.924Z,36.63
2018-01-04T03:18:16.668Z,50.00
2018-01-04T03:20:44.502Z,50.43
2018-01-04T03:23:17.960Z,35.13
2018-01-04T03:25:54.928Z,70.30
2018-01-04T03:28:28.226Z,46.67
2018-01-04T03:31:01.506Z,41.33
2018-01-04T03:36:42.549Z,27.53
2018-01-04T03:39:15.922Z,43.53
2018-01-04T03:41:48.992Z,42.70
2018-01-04T03:44:22.592Z,60.67
2018-01-04T03:46:56.000Z,37.47
2018-01-04T03:49:29.688Z,59.27
2018-01-04T03:52:03.049Z,59.40
2018-01-04T03:54:36.690Z,34.27
2018-01-04T04:00:16.462Z,50.57
2018-01-04T04:02:49.701Z,48.60
2018-01-04T04:05:23.290Z,29.97
2018-01-04T04:07:51.532Z,55.63
2018-01-04T04:10:19.214Z,57.20
2018-01-04T04:12:47.171Z,44.57
2018-01-04T04:15:15.031Z,49.60
2018-01-04T04:17:42.999Z,57.57
2018-01-04T04:20:10.612Z,51.90
2018-01-04T04:22:38.280Z,57.67
2018-01-04T04:25:07.438Z,43.63
2018-01-04T04:27:35.098Z,52.83
2018-01-04T04:30:02.935Z,45.80
2018-01-04T04:32:30.906Z,36.43
2018-01-04T04:34:58.894Z,38.37
2018-01-04T04:37:26.512Z,62.23
2018-01-04T04:39:54.256Z,39.50
2018-01-04T04:42:21.919Z,55.87
2018-01-04T04:44:49.832Z,62.60
2018-01-04T04:47:17.541Z,41.83
2018-01-04T04:49:45.202Z,44.37
2018-01-04T04:52:13.504Z,44.73
2018-01-04T04:54:41.527Z,56.70
2018-01-04T04:57:09.217Z,42.53
2018-01-04T04:59:36.949Z,61.47
2018-01-04T05:02:04.551Z,44.60
2018-01-04T05:04:32.574Z,38.20
2018-01-04T05:07:00.754Z,39.53
2018-01-04T05:09:28.430Z,30.30
2018-01-04T05:11:56.018Z,33.67
2018-01-04T05:14:23.703Z,33.87
2018-01-04T05:16:51.336Z,51.93
2018-01-04T05:19:18.914Z,28.40
2018-01-04T05:21:46.540Z,44.10
2018-01-04T05:24:14.125Z,45.40
2018-01-04T05:26:41.794Z,38.13
2018-01-04T05:29:09.400Z,50.30
2018-01-04T05:31:37.022Z,39.97
2018-01-04T05:34:04.654Z,34.47
2018-01-04T05:36:32.543Z,50.53
2018-01-04T05:39:00.460Z,62.80
2018-01-04T05:41:28.299Z,56.77
2018-01-04T05:43:55.932Z,53.77
2018-01-04T05:46:23.512Z,50.00
2018-01-04T05:48:51.347Z,36.00
2018-01-04T05:51:19.086Z,46.33
2018-01-04T05:53:46.729Z,27.83
2018-01-04T05:56:14.309Z,29.40
2018-01-04T05:58:42.187Z,50.90
2018-01-04T06:01:09.807Z,36.07
2018-01-04T06:03:37.425Z,38.43
2018-01-04T06:06:05.045Z,32.10
2018-01-04T06:08:32.725Z,56.93
2018-01-04T06:11:00.425Z,72.47
2018-01-04T06:13:28.053Z,50.10
2018-01-04T06:15:56.826Z,48.00
2018-01-04T06:18:24.482Z,50.83
2018-01-04T06:20:52.224Z,42.00
2018-01-04T06:23:20.001Z,49.90
2018-01-04T06:25:47.987Z,47.00
2018-01-04T06:28:15.596Z,50.97
2018-01-04T06:30:43.307Z,39.83
2018-01-04T06:33:10.949Z,43.13
2018-01-04T06:35:38.610Z,49.40
2018-01-04T06:38:06.278Z,47.13
2018-01-04T06:40:33.979Z,58.07
2018-01-04T06:43:01.614Z,42.37
2018-01-04T06:45:29.494Z,37.97
2018-01-04T06:47:57.154Z,40.67
2018-01-04T06:50:25.137Z,47.53
2018-01-04T06:52:52.814Z,54.87
2018-01-04T06:55:25.763Z,56.13
2018-01-04T06:57:53.407Z,48.60
2018-01-04T07:00:20.993Z,58.03
2018-01-04T07:02:48.854Z,36.37
2018-01-04T07:05:16.518Z,44.77
2018-01-04T07:07:44.151Z,45.10
2018-01-04T07:10:11.900Z,48.90
2018-01-04T07:12:39.538Z,53.73
2018-01-04T07:15:07.502Z,42.03
2018-01-04T07:17:35.275Z,43.90
2018-01-04T07:20:02.919Z,55.00
2018-01-04T07:22:30.582Z,48.50
2018-01-04T07:24:58.247Z,48.70
2018-01-04T07:27:26.427Z,42.47
2018-01-04T07:29:54.060Z,59.63
2018-01-04T07:32:21.685Z,39.33
2018-01-04T07:34:49.727Z,35.70
2018-01-04T07:37:17.365Z,57.40
2018-01-04T07:39:44.960Z,62.43
2018-01-04T07:42:12.669Z,54.80
2018-01-04T07:44:40.289Z,38.50
2018-01-04T07:47:07.897Z,35.93
2018-01-04T07:49:35.636Z,46.27
2018-01-04T07:52:03.555Z,50.13
2018-01-04T07:54:31.535Z,40.27
2018-01-04T07:56:59.244Z,66.63
2018-01-04T07:59:26.861Z,36.27
2018-01-04T08:01:54.535Z,34.03
2018-01-04T08:04:22.154Z,54.80
2018-01-04T08:06:49.903Z,34.20
2018-01-04T08:09:17.528Z,63.57
2018-01-04T08:11:45.170Z,40.90
2018-01-04T08:14:12.852Z,64.87
2018-01-04T08:16:40.791Z,33.93
2018-01-04T08:19:08.454Z,64.27
2018-01-04T08:21:36.108Z,37.33
2018-01-04T08:24:04.105Z,41.43
2018-01-04T08:26:31.721Z,60.50
2018-01-04T08:28:59.337Z,60.33
2018-01-04T08:31:27.007Z,59.30
2018-01-04T08:33:54.620Z,34.07
2018-01-04T08:36:22.255Z,45.40
2018-01-04T08:38:50.071Z,55.03
2018-01-04T08:41:17.631Z,32.67
2018-01-04T08:43:45.250Z,44.17
2018-01-04T08:46:12.860Z,56.03
2018-01-04T08:48:40.545Z,49.83
2018-01-04T08:51:08.211Z,41.90
2018-01-04T08:53:35.904Z,45.03
2018-01-04T08:56:03.804Z,57.80
2018-01-04T08:58:31.473Z,35.23
2018-01-04T09:00:59.376Z,66.13
2018-01-04T09:03:26.963Z,52.57
2018-01-04T09:05:54.599Z,55.17
2018-01-04T09:08:22.266Z,43.97
2018-01-04T09:10:50.276Z,42.53
2018-01-04T09:13:17.855Z,52.53
2018-01-04T09:15:45.518Z,47.10
2018-01-04T09:18:13.380Z,44.43
2018-01-04T09:20:41.011Z,42.27
2018-01-04T09:23:09.007Z,69.90
2018-01-04T09:25:36.595Z,63.03
2018-01-04T09:28:04.229Z,37.80
2018-01-04T09:30:32.193Z,50.80
2018-01-04T09:32:59.830Z,51.43
2018-01-04T09:35:27.454Z,76.97
2018-01-04T09:37:55.233Z,45.60
2018-01-04T09:40:22.901Z,51.77
2018-01-04T09:42:50.814Z,56.33
2018-01-04T09:45:18.518Z,54.43
2018-01-04T09:47:46.110Z,54.40
2018-01-04T09:50:14.952Z,65.20
2018-01-04T09:52:44.007Z,50.20
2018-01-04T09:55:11.688Z,54.67
2018-01-04T09:57:39.342Z,41.27
2018-01-04T10:00:07.242Z,61.43
2018-01-04T10:02:35.111Z,44.17
2018-01-04T10:05:02.740Z,42.63
2018-01-04T10:07:30.375Z,48.00
2018-01-04T10:09:58.480Z,47.73
2018-01-04T10:12:26.346Z,42.20
2018-01-04T10:14:54.157Z,43.67
2018-01-04T10:17:21.775Z,53.53
2018-01-04T10:19:49.411Z,58.13
2018-01-04T10:22:18.164Z,65.07
2018-01-04T10:24:45.755Z,84.80
2018-01-04T10:27:13.434Z,64.90
2018-01-04T10:29:41.040Z,66.33
2018-01-04T10:32:08.648Z,58.80
2018-01-04T10:34:36.731Z,75.17
2018-01-04T10:37:04.611Z,62.97
2018-01-04T10:39:32.256Z,37.80
2018-01-04T10:41:59.899Z,46.27
2018-01-04T10:44:27.790Z,55.23
2018-01-04T10:46:55.403Z,78.60
2018-01-04T10:49:23.082Z,51.30
2018-01-04T10:51:50.721Z,73.30
2018-01-04T10:54:18.341Z,50.37
2018-01-04T10:56:46.317Z,59.33
2018-01-04T10:59:14.276Z,66.87
2018-01-04T11:01:42.361Z,66.93
2018-01-04T11:04:09.953Z,64.87
2018-01-04T11:06:37.617Z,50.93
2018-01-04T11:09:05.307Z,68.73
2018-01-04T11:11:32.927Z,41.67
2018-01-04T11:14:00.615Z,68.27
2018-01-04T11:16:28.242Z,46.60
2018-01-04T11:18:56.192Z,70.80
2018-01-04T11:21:24.056Z,73.07
2018-01-04T11:23:51.650Z,64.53
2018-01-04T11:26:19.307Z,67.70
2018-01-04T11:28:46.968Z,81.33
2018-01-04T11:31:14.542Z,78.90
2018-01-04T11:33:42.572Z,54.50
2018-01-04T11:36:10.204Z,56.20
2018-01-04T11:38:37.770Z,52.17
2018-01-04T11:41:05.660Z,67.20
2018-01-04T11:43:33.488Z,69.13
2018-01-04T11:46:01.141Z,70.43
2018-01-04T11:48:28.824Z,49.33
2018-01-04T11:50:56.466Z,52.43
2018-01-04T11:53:24.218Z,46.53
2018-01-04T11:55:51.862Z,56.07
2018-01-04T11:58:19.697Z,62.17
2018-01-04T12:00:47.313Z,74.03
2018-01-04T12:03:14.915Z,76.70
2018-01-04T12:05:43.512Z,63.57
2018-01-04T12:08:11.072Z,63.13
2018-01-04T12:10:38.746Z,43.70
2018-01-04T12:13:06.620Z,61.13
2018-01-04T12:15:34.247Z,78.77
2018-01-04T12:18:01.850Z,50.57
2018-01-04T12:20:29.468Z,75.07
2018-01-04T12:22:57.087Z,71.53
2018-01-04T12:25:24.773Z,56.83
2018-01-04T12:27:52.375Z,97.17
2018-01-04T12:30:20.025Z,71.57
2018-01-04T12:32:47.599Z,55.23
2018-01-04T12:35:15.585Z,66.30
2018-01-04T12:37:43.558Z,49.00
2018-01-04T12:40:11.159Z,56.03
2018-01-04T12:42:39.058Z,55.77
2018-01-04T12:45:06.882Z,69.33
2018-01-04T12:47:34.483Z,63.70
2018-01-04T12:50:02.671Z,51.13
2018-01-04T12:52:30.748Z,52.83
2018-01-04T12:54:58.417Z,53.00
2018-01-04T12:57:25.981Z,56.37
2018-01-04T12:59:53.621Z,41.93
2018-01-04T13:02:21.587Z,52.60
2018-01-04T13:04:49.260Z,52.30
2018-01-04T13:07:16.937Z,34.83
2018-01-04T13:09:44.613Z,37.83
2018-01-04T13:12:12.655Z,53.97
2018-01-04T13:14:40.304Z,49.27
2018-01-04T13:17:08.279Z,32.87
2018-01-04T13:19:36.652Z,44.53
2018-01-04T13:22:04.393Z,47.07
2018-01-04T13:24:32.011Z,36.60
2018-01-04T13:26:59.587Z,36.67
2018-01-04T13:29:27.610Z,34.90
2018-01-04T13:31:55.404Z,43.00
2018-01-04T13:34:23.056Z,47.70
2018-01-04T13:36:50.787Z,42.80
2018-01-04T13:39:18.473Z,62.43
2018-01-04T13:41:46.202Z,45.33
2018-01-04T13:44:14.070Z,43.60
2018-01-04T13:46:41.673Z,43.60
2018-01-04T13:49:09.297Z,33.53
2018-01-04T13:51:37.143Z,42.97
2018-01-04T13:54:05.056Z,29.60
2018-01-04T13:56:32.752Z,39.47
2018-01-04T13:59:00.354Z,48.80
2018-01-04T14:01:28.386Z,43.30
2018-01-04T14:04:10.908Z,36.90
2018-01-04T14:06:43.503Z,29.40
2018-01-04T14:09:11.855Z,37.97
2018-01-04T14:11:39.550Z,44.37
2018-01-04T14:14:07.448Z,31.07
2018-01-04T14:16:35.052Z,39.80
2018-01-04T14:19:02.719Z,35.37
2018-01-04T14:21:39.666Z,45.73
2018-01-04T14:24:07.271Z,45.27
2018-01-04T14:26:35.095Z,31.83
2018-01-04T14:29:02.738Z,32.27
2018-01-04T14:31:30.616Z,38.93
2018-01-04T14:33:58.240Z,39.17
2018-01-04T14:36:25.850Z,28.67
2018-01-04T14:38:53.442Z,34.37
2018-01-04T14:41:21.100Z,45.03
2018-01-04T14:43:48.761Z,25.63
2018-01-04T14:46:16.470Z,36.20
2018-01-04T14:48:44.260Z,42.00
2018-01-04T14:51:12.214Z,41.27
2018-01-04T14:53:39.804Z,50.03
2018-01-04T14:56:07.430Z,37.90
2018-01-04T14:58:35.039Z,40.90
2018-01-04T15:01:02.603Z,55.03
2018-01-04T15:03:30.215Z,46.73
2018-01-04T15:05:57.796Z,30.63
2018-01-04T15:08:25.391Z,29.43
2018-01-04T15:10:53.068Z,31.47
2018-01-04T15:13:20.855Z,42.03
2018-01-04T15:15:48.673Z,37.50
2018-01-04T15:18:16.618Z,30.73
2018-01-04T15:20:44.478Z,25.30
2018-01-04T15:23:12.346Z,26.90
2018-01-04T15:25:40.072Z,27.00
2018-01-04T15:28:08.098Z,17.77
2018-01-04T15:30:36.751Z,22.53
2018-01-04T15:33:04.748Z,28.33
2018-01-04T15:35:32.596Z,26.73
2018-01-04T15:38:00.269Z,14.63
2018-01-04T15:40:27.971Z,31.93
2018-01-04T15:42:55.632Z,17.07
2018-01-04T15:45:27.574Z,26.20
2018-01-04T15:47:55.632Z,15.90
2018-01-04T15:50:23.291Z,15.50
2018-01-04T15:52:54.553Z,16.03
2018-01-04T15:55:22.274Z,12.13
2018-01-04T15:57:50.009Z,20.07
2018-01-04T16:00:24.579Z,12.93
2018-01-04T16:02:57.142Z,14.33
2018-01-04T16:05:26.905Z,13.07
2018-01-04T16:07:56.756Z,17.57
2018-01-04T16:10:30.097Z,12.73
2018-01-04T16:12:59.184Z,10.20
2018-01-04T16:15:29.745Z,10.43
2018-01-04T16:17:57.472Z,13.80
2018-01-04T16:20:25.450Z,22.13
2018-01-04T16:22:53.386Z,18.23
2018-01-04T16:28:07.690Z,14.53
2018-01-04T16:30:35.600Z,15.23
2018-01-04T16:33:09.328Z,24.80
2018-01-04T16:35:40.039Z,10.00
2018-01-04T16:38:07.926Z,17.60
2018-01-04T16:40:38.782Z,12.30
2018-01-04T16:43:06.681Z,14.70
2018-01-04T16:45:37.505Z,13.33
2018-01-04T16:48:08.843Z,17.60
2018-01-04T16:50:37.672Z,15.67
2018-01-04T16:53:07.053Z,16.43
2018-01-04T16:55:34.860Z,18.60
2018-01-04T17:00:36.798Z,15.93
2018-01-04T17:03:07.190Z,17.17
2018-01-04T17:05:37.882Z,22.67
2018-01-04T17:08:05.934Z,21.30
2018-01-04T17:10:40.027Z,26.37
2018-01-04T17:13:07.761Z,31.13
2018-01-04T17:15:39.119Z,25.93
2018-01-04T17:18:06.763Z,23.07
2018-01-04T17:20:34.512Z,31.03
2018-01-04T17:23:03.693Z,34.97
2018-01-04T17:25:31.616Z,35.30
2018-01-04T17:27:59.857Z,36.33
2018-01-04T17:30:32.134Z,39.43
2018-01-04T17:32:59.863Z,44.93
2018-01-04T17:35:27.544Z,38.67
2018-01-04T17:38:00.082Z,30.67
2018-01-04T17:40:27.791Z,40.90
2018-01-04T17:42:56.618Z,43.90
2018-01-04T17:45:24.609Z,41.37
2018-01-04T17:47:53.679Z,43.67
2018-01-04T17:53:04.539Z,48.30
2018-01-04T17:55:38.636Z,143.33
2018-01-04T17:58:08.269Z,60.70
2018-01-04T18:00:36.698Z,73.10
2018-01-04T18:03:06.176Z,53.67
2018-01-04T18:05:34.935Z,71.03
2018-01-04T18:08:06.141Z,50.50
2018-01-04T18:10:33.852Z,56.47
2018-01-04T18:13:02.417Z,59.13
2018-01-04T18:15:33.642Z,84.57
2018-01-04T18:18:02.032Z,75.13
2018-01-04T18:20:30.351Z,96.10
2018-01-04T18:22:58.252Z,109.23
2018-01-04T18:25:26.818Z,101.03
2018-01-04T18:27:54.816Z,96.97
2018-01-04T18:30:22.836Z,82.03
2018-01-04T18:32:53.437Z,65.67
2018-01-04T18:35:21.143Z,81.67
2018-01-04T18:37:48.886Z,54.03
2018-01-04T18:40:16.764Z,71.07
2018-01-04T18:42:44.780Z,57.70
2018-01-04T18:45:12.517Z,62.13
2018-01-04T18:47:40.430Z,53.40
2018-01-04T18:50:08.585Z,54.17
2018-01-04T18:52:36.416Z,47.73
2018-01-04T18:55:04.224Z,54.57
2018-01-04T18:57:32.081Z,47.50
2018-01-04T18:59:59.756Z,56.13
2018-01-04T19:02:31.901Z,66.13
2018-01-04T19:05:00.670Z,54.13
2018-01-04T19:07:28.483Z,72.00
2018-01-04T19:09:57.145Z,67.80
2018-01-04T19:12:24.813Z,53.83
2018-01-04T19:14:52.578Z,54.60
2018-01-04T19:17:20.390Z,32.23
2018-01-04T19:19:48.190Z,45.67
2018-01-04T19:22:16.121Z,60.40
2018-01-04T19:24:43.855Z,23.40
2018-01-04T19:27:11.591Z,21.33
2018-01-04T19:29:39.386Z,29.90
2018-01-04T19:32:08.463Z,27.33
2018-01-04T19:34:37.102Z,31.17
2018-01-04T19:37:05.013Z,38.17
2018-01-04T19:39:40.473Z,46.63
2018-01-04T19:42:08.225Z,48.63
2018-01-04T19:44:44.364Z,45.47
2018-01-04T19:47:15.155Z,40.73
2018-01-04T19:49:42.913Z,43.13
2018-01-04T19:52:10.627Z,33.83
2018-01-04T19:54:39.013Z,62.60
2018-01-04T19:57:13.409Z,46.43
2018-01-04T19:59:41.344Z,37.47
2018-01-04T20:02:09.044Z,34.40
2018-01-04T20:04:48.636Z,40.63
2018-01-04T20:07:17.537Z,37.73
2018-01-04T20:09:45.698Z,37.03
2018-01-04T20:12:16.366Z,32.30
2018-01-04T20:14:44.660Z,32.70
2018-01-04T20:17:13.318Z,38.07
2018-01-04T20:19:42.161Z,32.63
2018-01-04T20:22:10.326Z,35.40
2018-01-04T20:24:42.114Z,44.17
2018-01-04T20:27:11.848Z,27.47
2018-01-04T20:29:46.047Z,48.23
2018-01-04T20:32:21.870Z,31.00
2018-01-04T20:35:02.821Z,26.13
2018-01-04T20:37:31.553Z,23.50
2018-01-04T20:40:01.366Z,25.77
2018-01-04T20:42:31.900Z,25.23
2018-01-04T20:45:09.068Z,12.47
2018-01-04T20:47:38.352Z,17.47
2018-01-04T20:50:14.228Z,16.53
2018-01-04T20:52:41.967Z,30.37
2018-01-04T20:55:10.259Z,23.80
2018-01-04T20:57:41.625Z,23.97
2018-01-04T21:00:13.985Z,14.03
2018-01-04T21:02:47.717Z,29.60
2018-01-04T21:05:23.334Z,20.93
2018-01-04T21:07:51.923Z,23.73
2018-01-04T21:10:21.347Z,23.20
2018-01-04T21:12:51.741Z,17.47
2018-01-04T21:15:19.426Z,14.27
2018-01-04T21:17:50.902Z,16.17
2018-01-04T21:20:20.239Z,17.93
2018-01-04T21:22:47.971Z,9.07
2018-01-04T21:25:17.728Z,9.30
2018-01-04T21:27:48.775Z,11.43
2018-01-04T21:30:19.539Z,17.63
2018-01-04T21:32:52.166Z,11.27
2018-01-04T21:35:19.859Z,20.07
2018-01-04T21:37:50.008Z,10.40
2018-01-04T21:40:17.943Z,19.87
2018-01-04T21:42:45.671Z,14.37
2018-01-04T21:45:13.683Z,15.00
2018-01-04T21:47:47.613Z,16.87
2018-01-04T21:50:15.948Z,8.77
2018-01-04T21:55:36.205Z,24.07
2018-01-04T21:58:04.409Z,14.57
2018-01-04T22:00:32.102Z,16.37
2018-01-04T22:02:59.785Z,6.50
2018-01-04T22:08:35.185Z,13.10
2018-01-04T22:11:04.279Z,13.03
2018-01-04T22:13:32.152Z,9.20
2018-01-04T22:16:00.469Z,9.47
2018-01-04T22:18:28.210Z,15.67
2018-01-04T22:20:56.430Z,11.03
2018-01-04T22:23:25.450Z,6.00
2018-01-04T22:25:53.609Z,8.00
2018-01-04T22:28:21.337Z,7.63
2018-01-04T22:30:55.379Z,11.27
2018-01-04T22:33:23.438Z,8.13
2018-01-04T22:36:00.074Z,6.00
2018-01-04T22:38:28.077Z,13.77
2018-01-04T22:41:00.693Z,8.90
2018-01-04T22:43:28.402Z,8.90
2018-01-04T22:45:57.130Z,3.47
2018-01-04T22:48:30.119Z,13.73
2018-01-04T22:50:57.770Z,7.43
2018-01-04T22:53:26.076Z,7.30
2018-01-04T22:55:53.706Z,8.00
2018-01-04T22:58:21.794Z,4.30
2018-01-04T23:01:02.009Z,8.03
2018-01-04T23:03:30.014Z,8.93
2018-01-04T23:05:57.856Z,8.20
2018-01-04T23:08:27.872Z,7.43
2018-01-04T23:10:56.826Z,6.10
2018-01-04T23:16:06.463Z,5.00
2018-01-04T23:18:34.163Z,12.63
2018-01-04T23:21:01.967Z,5.63
2018-01-04T23:23:29.684Z,10.60
2018-01-04T23:25:58.418Z,12.33
2018-01-04T23:28:26.189Z,16.47
2018-01-04T23:31:02.842Z,5.83
2018-01-04T23:33:32.804Z,9.93
2018-01-04T23:36:00.765Z,8.27
2018-01-04T23:38:28.792Z,10.23
2018-01-04T23:40:56.598Z,17.97
2018-01-04T23:43:24.287Z,10.87
2018-01-04T23:45:52.098Z,9.63
2018-01-04T23:48:20.939Z,9.33
2018-01-04T23:50:51.312Z,13.70
2018-01-04T23:53:20.116Z,16.37
2018-01-04T23:55:47.754Z,9.17
2018-01-04T23:58:15.475Z,7.00
